sensor_id;sensor_type;location;lat;lon;timestamp;temperature;humidity
71801;HTU21D;59647;55.838;37.292;2023-03-15T00:00:14;5.49;63.63
71801;HTU21D;59647;55.838;37.292;2023-03-15T00:02:39;5.53;66.11
71801;HTU21D;59647;55.838;37.292;2023-03-15T00:05:06;5.43;62.63
71801;HTU21D;59647;55.838;37.292;2023-03-15T00:07:32;5.48;64.86
71801;HTU21D;59647;55.838;37.292;2023-03-15T00:09:58;5.47;64.34
71801;HTU21D;59647;55.838;37.292;2023-03-15T00:12:23;5.46;64.82
71801;HTU21D;59647;55.838;37.292;2023-03-15T00:14:50;5.47;65.10
71801;HTU21D;59647;55.838;37.292;2023-03-15T00:17:16;5.47;65.18
71801;HTU21D;59647;55.838;37.292;2023-03-15T00:19:42;5.42;64.00
71801;HTU21D;59647;55.838;37.292;2023-03-15T00:22:08;5.46;65.98
71801;HTU21D;59647;55.838;37.292;2023-03-15T00:24:34;5.41;64.40
71801;HTU21D;59647;55.838;37.292;2023-03-15T00:27:00;5.42;65.79
71801;HTU21D;59647;55.838;37.292;2023-03-15T00:29:25;5.40;65.45
71801;HTU21D;59647;55.838;37.292;2023-03-15T00:31:51;5.38;64.94
71801;HTU21D;59647;55.838;37.292;2023-03-15T00:34:17;5.39;65.48
71801;HTU21D;59647;55.838;37.292;2023-03-15T00:36:48;5.45;66.63
71801;HTU21D;59647;55.838;37.292;2023-03-15T00:39:14;5.45;65.40
71801;HTU21D;59647;55.838;37.292;2023-03-15T00:41:40;5.47;66.85
71801;HTU21D;59647;55.838;37.292;2023-03-15T00:44:06;5.49;66.43
71801;HTU21D;59647;55.838;37.292;2023-03-15T00:46:32;5.50;66.90
71801;HTU21D;59647;55.838;37.292;2023-03-15T00:48:57;5.48;66.91
71801;HTU21D;59647;55.838;37.292;2023-03-15T00:51:23;5.45;66.11
71801;HTU21D;59647;55.838;37.292;2023-03-15T00:53:50;5.49;66.45
71801;HTU21D;59647;55.838;37.292;2023-03-15T00:56:19;5.47;66.47
71801;HTU21D;59647;55.838;37.292;2023-03-15T00:58:46;5.42;66.04
71801;HTU21D;59647;55.838;37.292;2023-03-15T01:01:18;5.45;67.04
71801;HTU21D;59647;55.838;37.292;2023-03-15T01:03:44;5.48;67.80
71801;HTU21D;59647;55.838;37.292;2023-03-15T01:06:15;5.48;66.30
71801;HTU21D;59647;55.838;37.292;2023-03-15T01:08:43;5.47;67.46
71801;HTU21D;59647;55.838;37.292;2023-03-15T01:11:13;5.47;67.72
71801;HTU21D;59647;55.838;37.292;2023-03-15T01:13:39;5.43;66.42
71801;HTU21D;59647;55.838;37.292;2023-03-15T01:16:06;5.45;67.40
71801;HTU21D;59647;55.838;37.292;2023-03-15T01:18:32;5.42;66.88
71801;HTU21D;59647;55.838;37.292;2023-03-15T01:20:58;5.42;67.39
71801;HTU21D;59647;55.838;37.292;2023-03-15T01:23:24;5.38;65.87
71801;HTU21D;59647;55.838;37.292;2023-03-15T01:25:50;5.37;66.86
71801;HTU21D;59647;55.838;37.292;2023-03-15T01:28:17;5.39;67.97
71801;HTU21D;59647;55.838;37.292;2023-03-15T01:30:50;5.46;68.26
71801;HTU21D;59647;55.838;37.292;2023-03-15T01:33:15;5.39;67.46
71801;HTU21D;59647;55.838;37.292;2023-03-15T01:35:41;5.45;68.11
71801;HTU21D;59647;55.838;37.292;2023-03-15T01:38:07;5.46;68.14
71801;HTU21D;59647;55.838;37.292;2023-03-15T01:40:34;5.46;68.05
71801;HTU21D;59647;55.838;37.292;2023-03-15T01:46:33;5.47;67.62
71801;HTU21D;59647;55.838;37.292;2023-03-15T01:48:41;5.51;67.85
71801;HTU21D;59647;55.838;37.292;2023-03-15T01:51:55;5.51;68.09
71801;HTU21D;59647;55.838;37.292;2023-03-15T01:54:35;5.49;67.88
71801;HTU21D;59647;55.838;37.292;2023-03-15T01:57:17;5.51;68.09
71801;HTU21D;59647;55.838;37.292;2023-03-15T01:59:59;5.50;68.29
71801;HTU21D;59647;55.838;37.292;2023-03-15T02:02:27;5.47;68.33
71801;HTU21D;59647;55.838;37.292;2023-03-15T02:05:00;5.49;68.43
71801;HTU21D;59647;55.838;37.292;2023-03-15T02:07:31;5.49;69.02
71801;HTU21D;59647;55.838;37.292;2023-03-15T02:12:37;5.50;69.33
71801;HTU21D;59647;55.838;37.292;2023-03-15T02:15:05;5.49;68.73
71801;HTU21D;59647;55.838;37.292;2023-03-15T02:17:38;5.52;69.16
71801;HTU21D;59647;55.838;37.292;2023-03-15T02:20:32;5.47;68.68
71801;HTU21D;59647;55.838;37.292;2023-03-15T02:23:10;5.51;69.05
71801;HTU21D;59647;55.838;37.292;2023-03-15T02:28:32;5.39;69.17
71801;HTU21D;59647;55.838;37.292;2023-03-15T02:30:58;5.41;69.37
71801;HTU21D;59647;55.838;37.292;2023-03-15T02:33:32;5.46;69.61
71801;HTU21D;59647;55.838;37.292;2023-03-15T02:38:33;5.47;69.81
71801;HTU21D;59647;55.838;37.292;2023-03-15T02:40:59;5.48;69.85
71801;HTU21D;59647;55.838;37.292;2023-03-15T02:43:28;5.47;69.35
71801;HTU21D;59647;55.838;37.292;2023-03-15T02:45:55;5.45;69.67
71801;HTU21D;59647;55.838;37.292;2023-03-15T02:48:21;5.46;69.73
71801;HTU21D;59647;55.838;37.292;2023-03-15T02:50:47;5.46;69.97
71801;HTU21D;59647;55.838;37.292;2023-03-15T02:53:13;5.41;69.68
71801;HTU21D;59647;55.838;37.292;2023-03-15T02:55:40;5.47;70.32
71801;HTU21D;59647;55.838;37.292;2023-03-15T02:58:05;5.47;70.20
71801;HTU21D;59647;55.838;37.292;2023-03-15T03:00:31;5.45;70.27
71801;HTU21D;59647;55.838;37.292;2023-03-15T03:02:57;5.46;70.38
71801;HTU21D;59647;55.838;37.292;2023-03-15T03:05:24;5.45;70.48
71801;HTU21D;59647;55.838;37.292;2023-03-15T03:07:50;5.47;70.52
71801;HTU21D;59647;55.838;37.292;2023-03-15T03:10:18;5.45;70.54
71801;HTU21D;59647;55.838;37.292;2023-03-15T03:12:50;5.43;70.65
71801;HTU21D;59647;55.838;37.292;2023-03-15T03:15:23;5.46;70.77
71801;HTU21D;59647;55.838;37.292;2023-03-15T03:17:49;5.43;70.81
71801;HTU21D;59647;55.838;37.292;2023-03-15T03:20:16;5.41;70.94
71801;HTU21D;59647;55.838;37.292;2023-03-15T03:22:45;5.45;70.96
71801;HTU21D;59647;55.838;37.292;2023-03-15T03:25:11;5.46;70.60
71801;HTU21D;59647;55.838;37.292;2023-03-15T03:27:40;5.47;70.89
71801;HTU21D;59647;55.838;37.292;2023-03-15T03:30:10;5.48;70.97
71801;HTU21D;59647;55.838;37.292;2023-03-15T03:32:40;5.42;70.87
71801;HTU21D;59647;55.838;37.292;2023-03-15T03:35:07;5.42;71.04
71801;HTU21D;59647;55.838;37.292;2023-03-15T03:37:33;5.40;71.13
71801;HTU21D;59647;55.838;37.292;2023-03-15T03:40:09;5.37;71.09
71801;HTU21D;59647;55.838;37.292;2023-03-15T03:42:38;5.37;71.22
71801;HTU21D;59647;55.838;37.292;2023-03-15T03:45:05;5.35;70.96
71801;HTU21D;59647;55.838;37.292;2023-03-15T03:47:36;5.36;71.31
71801;HTU21D;59647;55.838;37.292;2023-03-15T03:50:02;5.37;71.34
71801;HTU21D;59647;55.838;37.292;2023-03-15T03:52:28;5.32;71.34
71801;HTU21D;59647;55.838;37.292;2023-03-15T03:55:03;5.31;71.46
71801;HTU21D;59647;55.838;37.292;2023-03-15T03:57:29;5.33;71.51
71801;HTU21D;59647;55.838;37.292;2023-03-15T03:59:55;5.31;71.51
71801;HTU21D;59647;55.838;37.292;2023-03-15T04:02:23;5.32;71.58
71801;HTU21D;59647;55.838;37.292;2023-03-15T04:05:02;5.30;71.62
71801;HTU21D;59647;55.838;37.292;2023-03-15T04:07:28;5.32;71.67
71801;HTU21D;59647;55.838;37.292;2023-03-15T04:09:54;5.32;71.29
71801;HTU21D;59647;55.838;37.292;2023-03-15T04:12:20;5.35;71.51
71801;HTU21D;59647;55.838;37.292;2023-03-15T04:14:47;5.37;71.50
71801;HTU21D;59647;55.838;37.292;2023-03-15T04:17:14;5.38;70.71
71801;HTU21D;59647;55.838;37.292;2023-03-15T04:19:40;5.43;71.06
71801;HTU21D;59647;55.838;37.292;2023-03-15T04:22:08;5.48;71.35
71801;HTU21D;59647;55.838;37.292;2023-03-15T04:24:54;5.36;69.52
71801;HTU21D;59647;55.838;37.292;2023-03-15T04:27:49;5.49;70.68
71801;HTU21D;59647;55.838;37.292;2023-03-15T04:30:41;5.47;70.14
71801;HTU21D;59647;55.838;37.292;2023-03-15T04:33:20;5.51;70.42
71801;HTU21D;59647;55.838;37.292;2023-03-15T04:36:11;5.53;70.41
71801;HTU21D;59647;55.838;37.292;2023-03-15T04:39:10;5.52;69.95
71801;HTU21D;59647;55.838;37.292;2023-03-15T04:41:48;5.50;69.71
71801;HTU21D;59647;55.838;37.292;2023-03-15T04:44:37;5.52;68.85
71801;HTU21D;59647;55.838;37.292;2023-03-15T04:47:23;5.56;69.00
71801;HTU21D;59647;55.838;37.292;2023-03-15T04:50:22;5.64;69.61
71801;HTU21D;59647;55.838;37.292;2023-03-15T04:53:14;5.71;70.23
71801;HTU21D;59647;55.838;37.292;2023-03-15T04:55:48;5.77;69.50
71801;HTU21D;59647;55.838;37.292;2023-03-15T04:58:40;5.78;69.47
71801;HTU21D;59647;55.838;37.292;2023-03-15T05:01:30;5.76;68.41
71801;HTU21D;59647;55.838;37.292;2023-03-15T05:04:34;5.74;68.64
71801;HTU21D;59647;55.838;37.292;2023-03-15T05:07:22;5.71;67.61
71801;HTU21D;59647;55.838;37.292;2023-03-15T05:10:10;5.74;67.23
71801;HTU21D;59647;55.838;37.292;2023-03-15T05:12:59;5.81;67.74
71801;HTU21D;59647;55.838;37.292;2023-03-15T05:15:42;5.85;67.49
71801;HTU21D;59647;55.838;37.292;2023-03-15T05:18:31;5.93;68.35
71801;HTU21D;59647;55.838;37.292;2023-03-15T05:21:25;5.98;66.23
71801;HTU21D;59647;55.838;37.292;2023-03-15T05:24:09;6.07;66.91
71801;HTU21D;59647;55.838;37.292;2023-03-15T05:26:53;6.09;66.17
71801;HTU21D;59647;55.838;37.292;2023-03-15T05:29:55;6.22;67.84
71801;HTU21D;59647;55.838;37.292;2023-03-15T05:32:39;6.28;65.97
71801;HTU21D;59647;55.838;37.292;2023-03-15T05:35:32;6.23;62.91
71801;HTU21D;59647;55.838;37.292;2023-03-15T05:38:18;6.37;64.56
71801;HTU21D;59647;55.838;37.292;2023-03-15T05:41:09;6.46;66.38
71801;HTU21D;59647;55.838;37.292;2023-03-15T05:43:47;6.59;67.83
71801;HTU21D;59647;55.838;37.292;2023-03-15T05:46:31;6.65;64.63
71801;HTU21D;59647;55.838;37.292;2023-03-15T05:49:17;6.69;65.59
71801;HTU21D;59647;55.838;37.292;2023-03-15T05:52:07;6.78;66.51
71801;HTU21D;59647;55.838;37.292;2023-03-15T05:54:52;6.84;62.41
71801;HTU21D;59647;55.838;37.292;2023-03-15T05:57:33;6.97;63.63
71801;HTU21D;59647;55.838;37.292;2023-03-15T06:00:17;6.99;64.57
71801;HTU21D;59647;55.838;37.292;2023-03-15T06:02:47;7.00;59.70
71801;HTU21D;59647;55.838;37.292;2023-03-15T06:05:28;7.07;59.51
71801;HTU21D;59647;55.838;37.292;2023-03-15T06:07:56;7.18;62.01
71801;HTU21D;59647;55.838;37.292;2023-03-15T06:10:22;7.30;63.78
71801;HTU21D;59647;55.838;37.292;2023-03-15T06:12:49;7.46;65.29
71801;HTU21D;59647;55.838;37.292;2023-03-15T06:15:18;7.57;59.49
71801;HTU21D;59647;55.838;37.292;2023-03-15T06:17:44;7.67;60.64
71801;HTU21D;59647;55.838;37.292;2023-03-15T06:20:11;7.78;61.54
71801;HTU21D;59647;55.838;37.292;2023-03-15T06:22:37;7.96;56.02
71801;HTU21D;59647;55.838;37.292;2023-03-15T06:25:12;8.06;62.19
71801;HTU21D;59647;55.838;37.292;2023-03-15T06:27:38;8.12;53.48
71801;HTU21D;59647;55.838;37.292;2023-03-15T06:30:05;8.35;61.19
71801;HTU21D;59647;55.838;37.292;2023-03-15T06:32:31;8.36;58.24
71801;HTU21D;59647;55.838;37.292;2023-03-15T06:34:57;8.42;62.10
71801;HTU21D;59647;55.838;37.292;2023-03-15T06:37:23;8.47;57.68
71801;HTU21D;59647;55.838;37.292;2023-03-15T06:39:49;8.55;60.36
71801;HTU21D;59647;55.838;37.292;2023-03-15T06:42:16;8.59;57.74
71801;HTU21D;59647;55.838;37.292;2023-03-15T06:44:42;8.64;62.48
71801;HTU21D;59647;55.838;37.292;2023-03-15T06:47:09;8.50;59.42
71801;HTU21D;59647;55.838;37.292;2023-03-15T06:49:36;8.45;59.07
71801;HTU21D;59647;55.838;37.292;2023-03-15T06:52:04;8.47;60.12
71801;HTU21D;59647;55.838;37.292;2023-03-15T06:54:30;8.36;56.71
71801;HTU21D;59647;55.838;37.292;2023-03-15T06:56:56;8.37;58.69
71801;HTU21D;59647;55.838;37.292;2023-03-15T06:59:22;8.37;59.23
71801;HTU21D;59647;55.838;37.292;2023-03-15T07:01:49;8.43;59.63
71801;HTU21D;59647;55.838;37.292;2023-03-15T07:04:15;8.36;55.30
71801;HTU21D;59647;55.838;37.292;2023-03-15T07:06:41;8.41;59.67
71801;HTU21D;59647;55.838;37.292;2023-03-15T07:09:06;8.50;59.03
71801;HTU21D;59647;55.838;37.292;2023-03-15T07:11:32;8.45;53.87
71801;HTU21D;59647;55.838;37.292;2023-03-15T07:13:58;8.48;55.52
71801;HTU21D;59647;55.838;37.292;2023-03-15T07:16:24;8.57;61.41
71801;HTU21D;59647;55.838;37.292;2023-03-15T07:18:51;8.64;58.67
71801;HTU21D;59647;55.838;37.292;2023-03-15T07:21:20;8.68;61.41
71801;HTU21D;59647;55.838;37.292;2023-03-15T07:23:45;8.68;60.43
71801;HTU21D;59647;55.838;37.292;2023-03-15T07:26:11;8.66;54.25
71801;HTU21D;59647;55.838;37.292;2023-03-15T07:28:37;8.64;59.86
71801;HTU21D;59647;55.838;37.292;2023-03-15T07:31:04;8.71;54.20
71801;HTU21D;59647;55.838;37.292;2023-03-15T07:33:32;8.82;59.13
71801;HTU21D;59647;55.838;37.292;2023-03-15T07:35:58;8.90;56.56
71801;HTU21D;59647;55.838;37.292;2023-03-15T07:38:26;8.94;58.12
71801;HTU21D;59647;55.838;37.292;2023-03-15T07:40:53;9.09;58.58
71801;HTU21D;59647;55.838;37.292;2023-03-15T07:43:20;9.21;57.79
71801;HTU21D;59647;55.838;37.292;2023-03-15T07:45:49;9.31;58.46
71801;HTU21D;59647;55.838;37.292;2023-03-15T07:48:15;9.39;55.19
71801;HTU21D;59647;55.838;37.292;2023-03-15T07:50:41;9.49;57.85
71801;HTU21D;59647;55.838;37.292;2023-03-15T07:53:07;9.57;51.86
71801;HTU21D;59647;55.838;37.292;2023-03-15T07:55:34;9.61;54.93
71801;HTU21D;59647;55.838;37.292;2023-03-15T07:58:00;9.76;58.80
71801;HTU21D;59647;55.838;37.292;2023-03-15T08:00:27;9.74;51.46
71801;HTU21D;59647;55.838;37.292;2023-03-15T08:02:53;9.83;56.16
71801;HTU21D;59647;55.838;37.292;2023-03-15T08:05:19;9.81;49.61
71801;HTU21D;59647;55.838;37.292;2023-03-15T08:07:46;9.80;56.14
71801;HTU21D;59647;55.838;37.292;2023-03-15T08:10:12;9.82;49.17
71801;HTU21D;59647;55.838;37.292;2023-03-15T08:12:39;9.92;58.04
71801;HTU21D;59647;55.838;37.292;2023-03-15T08:15:14;10.00;50.43
71801;HTU21D;59647;55.838;37.292;2023-03-15T08:17:40;10.12;51.94
71801;HTU21D;59647;55.838;37.292;2023-03-15T08:20:07;10.29;56.88
71801;HTU21D;59647;55.838;37.292;2023-03-15T08:22:37;10.18;47.73
71801;HTU21D;59647;55.838;37.292;2023-03-15T08:25:04;10.11;50.26
71801;HTU21D;59647;55.838;37.292;2023-03-15T08:27:30;10.23;52.40
71801;HTU21D;59647;55.838;37.292;2023-03-15T08:29:56;10.43;52.79
71801;HTU21D;59647;55.838;37.292;2023-03-15T08:32:22;10.62;53.10
71801;HTU21D;59647;55.838;37.292;2023-03-15T08:34:48;10.73;51.55
71801;HTU21D;59647;55.838;37.292;2023-03-15T08:37:14;10.87;55.74
71801;HTU21D;59647;55.838;37.292;2023-03-15T08:39:39;10.87;46.85
71801;HTU21D;59647;55.838;37.292;2023-03-15T08:42:06;10.86;49.34
71801;HTU21D;59647;55.838;37.292;2023-03-15T08:44:32;10.88;48.73
71801;HTU21D;59647;55.838;37.292;2023-03-15T08:46:58;10.89;53.30
71801;HTU21D;59647;55.838;37.292;2023-03-15T08:49:23;10.90;49.31
71801;HTU21D;59647;55.838;37.292;2023-03-15T08:51:50;10.99;48.79
71801;HTU21D;59647;55.838;37.292;2023-03-15T08:54:16;11.02;48.70
71801;HTU21D;59647;55.838;37.292;2023-03-15T08:56:43;11.07;48.50
71801;HTU21D;59647;55.838;37.292;2023-03-15T08:59:09;11.22;53.72
71801;HTU21D;59647;55.838;37.292;2023-03-15T09:01:35;11.36;49.94
71801;HTU21D;59647;55.838;37.292;2023-03-15T09:04:04;11.46;51.04
71801;HTU21D;59647;55.838;37.292;2023-03-15T09:06:30;11.56;51.44
71801;HTU21D;59647;55.838;37.292;2023-03-15T09:08:56;11.71;44.80
71801;HTU21D;59647;55.838;37.292;2023-03-15T09:11:22;11.89;50.84
71801;HTU21D;59647;55.838;37.292;2023-03-15T09:13:48;12.07;45.13
71801;HTU21D;59647;55.838;37.292;2023-03-15T09:16:14;11.98;43.75
71801;HTU21D;59647;55.838;37.292;2023-03-15T09:18:40;12.08;51.40
71801;HTU21D;59647;55.838;37.292;2023-03-15T09:21:09;12.06;47.70
71801;HTU21D;59647;55.838;37.292;2023-03-15T09:23:35;12.21;50.33
71801;HTU21D;59647;55.838;37.292;2023-03-15T09:26:00;12.35;45.00
71801;HTU21D;59647;55.838;37.292;2023-03-15T09:28:26;12.38;45.52
71801;HTU21D;59647;55.838;37.292;2023-03-15T09:30:52;12.44;52.53
71801;HTU21D;59647;55.838;37.292;2023-03-15T09:33:20;12.30;42.67
71801;HTU21D;59647;55.838;37.292;2023-03-15T09:35:52;12.29;44.85
71801;HTU21D;59647;55.838;37.292;2023-03-15T09:38:18;12.31;44.93
71801;HTU21D;59647;55.838;37.292;2023-03-15T09:40:45;12.49;44.99
71801;HTU21D;59647;55.838;37.292;2023-03-15T09:48:57;12.60;48.16
71801;HTU21D;59647;55.838;37.292;2023-03-15T09:54:10;12.53;49.76
71801;HTU21D;59647;55.838;37.292;2023-03-15T09:56:55;12.59;47.70
71801;HTU21D;59647;55.838;37.292;2023-03-15T09:59:25;12.66;49.40
71801;HTU21D;59647;55.838;37.292;2023-03-15T10:01:54;12.67;45.49
71801;HTU21D;59647;55.838;37.292;2023-03-15T10:04:30;12.67;49.04
71801;HTU21D;59647;55.838;37.292;2023-03-15T10:07:01;12.79;49.34
71801;HTU21D;59647;55.838;37.292;2023-03-15T10:09:30;12.96;48.45
71801;HTU21D;59647;55.838;37.292;2023-03-15T10:12:22;13.04;45.41
71801;HTU21D;59647;55.838;37.292;2023-03-15T10:20:40;12.62;45.59
71801;HTU21D;59647;55.838;37.292;2023-03-15T10:25:34;12.34;49.94
71801;HTU21D;59647;55.838;37.292;2023-03-15T10:30:36;12.06;48.31
71801;HTU21D;59647;55.838;37.292;2023-03-15T10:33:25;12.03;50.26
71801;HTU21D;59647;55.838;37.292;2023-03-15T10:35:53;11.97;52.93
71801;HTU21D;59647;55.838;37.292;2023-03-15T10:38:21;11.90;46.54
71801;HTU21D;59647;55.838;37.292;2023-03-15T10:45:58;11.83;49.00
71801;HTU21D;59647;55.838;37.292;2023-03-15T10:48:26;11.88;48.63
71801;HTU21D;59647;55.838;37.292;2023-03-15T10:50:54;11.81;50.67
71801;HTU21D;59647;55.838;37.292;2023-03-15T10:53:21;11.79;51.28
71801;HTU21D;59647;55.838;37.292;2023-03-15T10:55:58;11.79;48.70
71801;HTU21D;59647;55.838;37.292;2023-03-15T10:58:28;11.83;49.20
71801;HTU21D;59647;55.838;37.292;2023-03-15T11:01:04;11.88;49.42
71801;HTU21D;59647;55.838;37.292;2023-03-15T11:03:35;11.90;50.41
71801;HTU21D;59647;55.838;37.292;2023-03-15T11:06:03;11.96;52.14
71801;HTU21D;59647;55.838;37.292;2023-03-15T11:08:42;11.96;51.19
71801;HTU21D;59647;55.838;37.292;2023-03-15T11:11:08;11.90;51.18
71801;HTU21D;59647;55.838;37.292;2023-03-15T11:13:36;11.86;52.29
71801;HTU21D;59647;55.838;37.292;2023-03-15T11:16:18;11.91;50.66
71801;HTU21D;59647;55.838;37.292;2023-03-15T11:18:49;12.05;53.49
71801;HTU21D;59647;55.838;37.292;2023-03-15T11:21:22;12.07;51.45
71801;HTU21D;59647;55.838;37.292;2023-03-15T11:23:50;11.98;50.51
71801;HTU21D;59647;55.838;37.292;2023-03-15T11:26:22;11.92;50.93
71801;HTU21D;59647;55.838;37.292;2023-03-15T11:28:51;11.91;49.76
71801;HTU21D;59647;55.838;37.292;2023-03-15T11:31:19;11.82;50.35
71801;HTU21D;59647;55.838;37.292;2023-03-15T11:33:55;11.72;50.34
71801;HTU21D;59647;55.838;37.292;2023-03-15T11:36:26;11.71;53.01
71801;HTU21D;59647;55.838;37.292;2023-03-15T11:38:54;11.72;53.52
71801;HTU21D;59647;55.838;37.292;2023-03-15T11:41:31;11.76;52.88
71801;HTU21D;59647;55.838;37.292;2023-03-15T11:44:14;11.70;50.56
71801;HTU21D;59647;55.838;37.292;2023-03-15T11:46:56;11.68;50.66
71801;HTU21D;59647;55.838;37.292;2023-03-15T11:51:56;11.88;53.47
71801;HTU21D;59647;55.838;37.292;2023-03-15T11:54:24;11.74;51.89
71801;HTU21D;59647;55.838;37.292;2023-03-15T11:56:52;11.73;53.20
71801;HTU21D;59647;55.838;37.292;2023-03-15T11:59:38;11.79;51.24
71801;HTU21D;59647;55.838;37.292;2023-03-15T12:04:46;11.90;53.48
71801;HTU21D;59647;55.838;37.292;2023-03-15T12:09:50;11.85;51.17
71801;HTU21D;59647;55.838;37.292;2023-03-15T12:17:55;11.77;50.43
71801;HTU21D;59647;55.838;37.292;2023-03-15T12:20:37;11.75;50.98
71801;HTU21D;59647;55.838;37.292;2023-03-15T12:30:59;11.67;50.82
71801;HTU21D;59647;55.838;37.292;2023-03-15T12:33:28;11.72;53.89
71801;HTU21D;59647;55.838;37.292;2023-03-15T12:36:08;11.74;52.61
71801;HTU21D;59647;55.838;37.292;2023-03-15T12:38:36;11.68;51.21
71801;HTU21D;59647;55.838;37.292;2023-03-15T12:41:08;11.63;52.43
71801;HTU21D;59647;55.838;37.292;2023-03-15T12:43:42;11.73;53.88
71801;HTU21D;59647;55.838;37.292;2023-03-15T12:51:55;11.49;52.98
71801;HTU21D;59647;55.838;37.292;2023-03-15T12:54:24;11.44;54.30
71801;HTU21D;59647;55.838;37.292;2023-03-15T12:56:56;11.36;53.59
71801;HTU21D;59647;55.838;37.292;2023-03-15T12:59:34;11.40;54.55
71801;HTU21D;59647;55.838;37.292;2023-03-15T13:05:18;11.64;53.20
71801;HTU21D;59647;55.838;37.292;2023-03-15T13:07:51;11.57;52.06
71801;HTU21D;59647;55.838;37.292;2023-03-15T13:10:38;11.58;53.41
71801;HTU21D;59647;55.838;37.292;2023-03-15T13:16:19;11.48;52.20
71801;HTU21D;59647;55.838;37.292;2023-03-15T13:18:59;11.56;53.26
71801;HTU21D;59647;55.838;37.292;2023-03-15T13:22:13;11.69;52.94
71801;HTU21D;59647;55.838;37.292;2023-03-15T13:28:01;11.54;52.76
71801;HTU21D;59647;55.838;37.292;2023-03-15T13:30:46;11.39;53.71
71801;HTU21D;59647;55.838;37.292;2023-03-15T13:33:22;11.33;53.49
71801;HTU21D;59647;55.838;37.292;2023-03-15T13:36:00;11.29;54.38
71801;HTU21D;59647;55.838;37.292;2023-03-15T13:38:32;11.01;54.62
71801;HTU21D;59647;55.838;37.292;2023-03-15T13:41:00;10.94;55.81
71801;HTU21D;59647;55.838;37.292;2023-03-15T13:43:30;11.04;55.61
71801;HTU21D;59647;55.838;37.292;2023-03-15T13:45:57;11.16;55.62
71801;HTU21D;59647;55.838;37.292;2023-03-15T13:48:26;11.30;56.19
71801;HTU21D;59647;55.838;37.292;2023-03-15T13:50:52;11.30;54.30
71801;HTU21D;59647;55.838;37.292;2023-03-15T13:53:24;11.19;54.49
71801;HTU21D;59647;55.838;37.292;2023-03-15T13:55:52;11.16;54.87
71801;HTU21D;59647;55.838;37.292;2023-03-15T13:58:21;11.10;55.29
71801;HTU21D;59647;55.838;37.292;2023-03-15T14:00:55;10.86;55.65
71801;HTU21D;59647;55.838;37.292;2023-03-15T14:03:21;10.71;56.61
71801;HTU21D;59647;55.838;37.292;2023-03-15T14:05:50;10.63;57.06
71801;HTU21D;59647;55.838;37.292;2023-03-15T14:13:25;10.28;57.93
71801;HTU21D;59647;55.838;37.292;2023-03-15T14:16:11;10.16;58.03
71801;HTU21D;59647;55.838;37.292;2023-03-15T14:18:39;10.07;58.48
71801;HTU21D;59647;55.838;37.292;2023-03-15T14:21:17;10.03;58.83
71801;HTU21D;59647;55.838;37.292;2023-03-15T14:23:46;9.98;59.16
71801;HTU21D;59647;55.838;37.292;2023-03-15T14:26:18;9.89;59.30
71801;HTU21D;59647;55.838;37.292;2023-03-15T14:28:55;9.82;59.49
71801;HTU21D;59647;55.838;37.292;2023-03-15T14:31:27;9.78;59.79
71801;HTU21D;59647;55.838;37.292;2023-03-15T14:33:56;9.74;59.96
71801;HTU21D;59647;55.838;37.292;2023-03-15T14:36:51;9.72;60.06
71801;HTU21D;59647;55.838;37.292;2023-03-15T14:39:30;9.69;60.54
71801;HTU21D;59647;55.838;37.292;2023-03-15T14:41:56;9.66;60.28
71801;HTU21D;59647;55.838;37.292;2023-03-15T14:44:22;9.61;60.45
71801;HTU21D;59647;55.838;37.292;2023-03-15T14:46:48;9.59;60.75
71801;HTU21D;59647;55.838;37.292;2023-03-15T14:49:25;9.55;61.33
71801;HTU21D;59647;55.838;37.292;2023-03-15T14:52:01;9.46;61.50
71801;HTU21D;59647;55.838;37.292;2023-03-15T14:54:28;9.32;62.36
71801;HTU21D;59647;55.838;37.292;2023-03-15T14:56:55;9.24;62.15
71801;HTU21D;59647;55.838;37.292;2023-03-15T14:59:21;9.14;62.42
71801;HTU21D;59647;55.838;37.292;2023-03-15T15:01:56;9.07;62.67
71801;HTU21D;59647;55.838;37.292;2023-03-15T15:04:22;8.98;63.27
71801;HTU21D;59647;55.838;37.292;2023-03-15T15:06:48;8.89;62.57
71801;HTU21D;59647;55.838;37.292;2023-03-15T15:09:22;8.86;62.66
71801;HTU21D;59647;55.838;37.292;2023-03-15T15:11:50;8.81;62.89
71801;HTU21D;59647;55.838;37.292;2023-03-15T15:14:16;8.77;62.58
71801;HTU21D;59647;55.838;37.292;2023-03-15T15:16:43;8.72;62.75
71801;HTU21D;59647;55.838;37.292;2023-03-15T15:19:09;8.66;62.95
71801;HTU21D;59647;55.838;37.292;2023-03-15T15:21:35;8.64;63.56
71801;HTU21D;59647;55.838;37.292;2023-03-15T15:24:03;8.59;63.11
71801;HTU21D;59647;55.838;37.292;2023-03-15T15:26:30;8.57;63.47
71801;HTU21D;59647;55.838;37.292;2023-03-15T15:28:57;8.49;64.93
71801;HTU21D;59647;55.838;37.292;2023-03-15T15:31:24;8.42;64.18
71801;HTU21D;59647;55.838;37.292;2023-03-15T15:33:51;8.31;65.43
71801;HTU21D;59647;55.838;37.292;2023-03-15T15:36:32;8.24;65.55
71801;HTU21D;59647;55.838;37.292;2023-03-15T15:38:59;8.18;64.94
71801;HTU21D;59647;55.838;37.292;2023-03-15T15:41:30;8.13;65.02
71801;HTU21D;59647;55.838;37.292;2023-03-15T15:43:59;8.02;66.11
71801;HTU21D;59647;55.838;37.292;2023-03-15T15:46:26;7.93;66.79
71801;HTU21D;59647;55.838;37.292;2023-03-15T15:48:52;7.88;65.51
71801;HTU21D;59647;55.838;37.292;2023-03-15T15:51:30;7.88;66.24
71801;HTU21D;59647;55.838;37.292;2023-03-15T15:53:58;7.84;66.04
71801;HTU21D;59647;55.838;37.292;2023-03-15T15:56:29;7.76;66.74
71801;HTU21D;59647;55.838;37.292;2023-03-15T15:58:57;7.69;68.94
71801;HTU21D;59647;55.838;37.292;2023-03-15T16:01:24;7.64;66.71
71801;HTU21D;59647;55.838;37.292;2023-03-15T16:03:49;7.60;67.71
71801;HTU21D;59647;55.838;37.292;2023-03-15T16:06:18;7.55;67.73
71801;HTU21D;59647;55.838;37.292;2023-03-15T16:08:45;7.50;68.80
71801;HTU21D;59647;55.838;37.292;2023-03-15T16:11:13;7.43;69.67
71801;HTU21D;59647;55.838;37.292;2023-03-15T16:13:40;7.33;68.60
71801;HTU21D;59647;55.838;37.292;2023-03-15T16:16:11;7.24;71.04
71801;HTU21D;59647;55.838;37.292;2023-03-15T16:18:38;7.23;68.71
71801;HTU21D;59647;55.838;37.292;2023-03-15T16:21:03;7.17;70.82
71801;HTU21D;59647;55.838;37.292;2023-03-15T16:23:29;7.11;69.67
71801;HTU21D;59647;55.838;37.292;2023-03-15T16:25:55;7.09;70.71
71801;HTU21D;59647;55.838;37.292;2023-03-15T16:28:22;7.04;69.13
71801;HTU21D;59647;55.838;37.292;2023-03-15T16:30:48;7.08;69.84
71801;HTU21D;59647;55.838;37.292;2023-03-15T16:33:18;7.03;68.62
71801;HTU21D;59647;55.838;37.292;2023-03-15T16:35:46;7.00;69.76
71801;HTU21D;59647;55.838;37.292;2023-03-15T16:38:16;6.98;69.04
71801;HTU21D;59647;55.838;37.292;2023-03-15T16:40:50;6.91;70.29
71801;HTU21D;59647;55.838;37.292;2023-03-15T16:43:17;6.84;70.24
71801;HTU21D;59647;55.838;37.292;2023-03-15T16:45:43;6.84;69.57
71801;HTU21D;59647;55.838;37.292;2023-03-15T16:48:09;6.85;68.75
71801;HTU21D;59647;55.838;37.292;2023-03-15T16:50:36;6.84;70.35
71801;HTU21D;59647;55.838;37.292;2023-03-15T16:53:05;6.85;69.60